Terminal Aerodrome Forecast
Issued by NWS

Home | Current Version | Previous Version | Text Only | Print | Product List | Glossary On
Versions: 1 2 3 4 5 6 7 8 9 10 11 12 13 14 15 16 17 18 19 20 21 22 23 24 25 26 27 28
000
FTUS41 KCTP 301528 AAA
TAFJST
TAF AMD
KJST 301528Z 3015/3112 29005KT P6SM OVC018
     FM301800 30005KT P6SM OVC025
     FM302000 30006KT P6SM OVC050
     FM310600 20004KT P6SM OVC050=

USA.gov is the U.S. government's official web portal to all federal, state and local government web resources and services.